Terminal Aerodrome Forecast
Issued by NWS

Home | Current Version | Previous Version | Text Only | Print | Product List | Glossary On
Versions: 1 2 3 4 5 6 7 8 9 10 11 12 13
000
FTUS45 KVEF 291726
TAFBIH
TAF
KBIH 291726Z 2918/3018 VRB05KT P6SM SKC
     FM292000 17010G18KT P6SM SKC
     FM300200 15010KT P6SM SKC
     FM300800 26005KT P6SM SCT150=

USA.gov is the U.S. government's official web portal to all federal, state and local government web resources and services.